sensor_id;sensor_type;location;lat;lon;timestamp;P1;durP1;ratioP1;P2;durP2;ratioP2
58820;SDS011;70670;52.476;13.334;2023-07-09T00:02:21;4.60;;;2.83;;
58820;SDS011;70670;52.476;13.334;2023-07-09T00:04:48;6.35;;;2.90;;
58820;SDS011;70670;52.476;13.334;2023-07-09T00:07:16;5.53;;;2.42;;
58820;SDS011;70670;52.476;13.334;2023-07-09T00:09:53;3.47;;;2.72;;
58820;SDS011;70670;52.476;13.334;2023-07-09T00:12:20;6.68;;;2.58;;
58820;SDS011;70670;52.476;13.334;2023-07-09T00:14:46;2.75;;;1.90;;
58820;SDS011;70670;52.476;13.334;2023-07-09T00:17:15;6.93;;;2.42;;
58820;SDS011;70670;52.476;13.334;2023-07-09T00:19:45;3.28;;;2.40;;
58820;SDS011;70670;52.476;13.334;2023-07-09T00:22:15;4.82;;;2.70;;
58820;SDS011;70670;52.476;13.334;2023-07-09T00:24:45;4.07;;;2.47;;
58820;SDS011;70670;52.476;13.334;2023-07-09T00:27:13;5.30;;;2.47;;
58820;SDS011;70670;52.476;13.334;2023-07-09T00:32:17;4.25;;;2.38;;
58820;SDS011;70670;52.476;13.334;2023-07-09T00:34:46;6.18;;;2.78;;
58820;SDS011;70670;52.476;13.334;2023-07-09T00:37:16;3.05;;;2.25;;
58820;SDS011;70670;52.476;13.334;2023-07-09T00:39:43;6.07;;;2.20;;
58820;SDS011;70670;52.476;13.334;2023-07-09T00:42:17;4.25;;;2.80;;
58820;SDS011;70670;52.476;13.334;2023-07-09T00:44:45;4.00;;;2.60;;
58820;SDS011;70670;52.476;13.334;2023-07-09T00:47:17;6.38;;;2.75;;
58820;SDS011;70670;52.476;13.334;2023-07-09T00:49:49;3.85;;;2.58;;
58820;SDS011;70670;52.476;13.334;2023-07-09T00:52:26;3.80;;;2.33;;
58820;SDS011;70670;52.476;13.334;2023-07-09T00:54:59;6.18;;;2.40;;
58820;SDS011;70670;52.476;13.334;2023-07-09T00:57:30;4.38;;;2.95;;
58820;SDS011;70670;52.476;13.334;2023-07-09T00:59:58;5.93;;;2.55;;
58820;SDS011;70670;52.476;13.334;2023-07-09T01:02:38;5.40;;;2.40;;
58820;SDS011;70670;52.476;13.334;2023-07-09T01:05:10;7.15;;;2.75;;
58820;SDS011;70670;52.476;13.334;2023-07-09T01:07:37;5.22;;;2.50;;
58820;SDS011;70670;52.476;13.334;2023-07-09T01:10:04;6.18;;;2.80;;
58820;SDS011;70670;52.476;13.334;2023-07-09T01:12:29;8.43;;;2.47;;
58820;SDS011;70670;52.476;13.334;2023-07-09T01:14:56;10.98;;;2.78;;
58820;SDS011;70670;52.476;13.334;2023-07-09T01:17:24;2.83;;;2.35;;
58820;SDS011;70670;52.476;13.334;2023-07-09T01:19:53;5.65;;;2.10;;
58820;SDS011;70670;52.476;13.334;2023-07-09T01:22:21;4.95;;;2.40;;
58820;SDS011;70670;52.476;13.334;2023-07-09T01:24:48;6.20;;;2.80;;
58820;SDS011;70670;52.476;13.334;2023-07-09T01:29:54;6.80;;;2.25;;
58820;SDS011;70670;52.476;13.334;2023-07-09T01:32:22;5.55;;;2.67;;
58820;SDS011;70670;52.476;13.334;2023-07-09T01:34:51;3.15;;;2.33;;
58820;SDS011;70670;52.476;13.334;2023-07-09T01:39:49;8.90;;;2.95;;
58820;SDS011;70670;52.476;13.334;2023-07-09T01:42:16;4.35;;;2.88;;
58820;SDS011;70670;52.476;13.334;2023-07-09T01:44:43;4.82;;;2.47;;
58820;SDS011;70670;52.476;13.334;2023-07-09T01:47:11;4.68;;;2.50;;
58820;SDS011;70670;52.476;13.334;2023-07-09T01:49:37;3.38;;;2.55;;
58820;SDS011;70670;52.476;13.334;2023-07-09T01:52:05;4.28;;;2.53;;
58820;SDS011;70670;52.476;13.334;2023-07-09T01:54:33;5.00;;;2.30;;
58820;SDS011;70670;52.476;13.334;2023-07-09T01:59:52;4.45;;;2.80;;
58820;SDS011;70670;52.476;13.334;2023-07-09T02:02:20;4.38;;;2.92;;
58820;SDS011;70670;52.476;13.334;2023-07-09T02:04:47;3.40;;;2.63;;
58820;SDS011;70670;52.476;13.334;2023-07-09T02:07:15;6.38;;;2.78;;
58820;SDS011;70670;52.476;13.334;2023-07-09T02:09:41;5.00;;;2.33;;
58820;SDS011;70670;52.476;13.334;2023-07-09T02:12:08;7.55;;;3.20;;
58820;SDS011;70670;52.476;13.334;2023-07-09T02:14:35;6.22;;;2.85;;
58820;SDS011;70670;52.476;13.334;2023-07-09T02:17:01;6.68;;;3.15;;
58820;SDS011;70670;52.476;13.334;2023-07-09T02:19:28;8.55;;;3.63;;
58820;SDS011;70670;52.476;13.334;2023-07-09T02:21:54;6.47;;;3.15;;
58820;SDS011;70670;52.476;13.334;2023-07-09T02:24:20;10.43;;;3.10;;
58820;SDS011;70670;52.476;13.334;2023-07-09T02:26:49;5.78;;;3.03;;
58820;SDS011;70670;52.476;13.334;2023-07-09T02:29:22;4.38;;;2.50;;
58820;SDS011;70670;52.476;13.334;2023-07-09T02:31:50;5.30;;;2.70;;
58820;SDS011;70670;52.476;13.334;2023-07-09T02:34:17;3.75;;;2.78;;
58820;SDS011;70670;52.476;13.334;2023-07-09T02:36:43;4.40;;;2.75;;
58820;SDS011;70670;52.476;13.334;2023-07-09T02:39:10;6.22;;;3.05;;
58820;SDS011;70670;52.476;13.334;2023-07-09T02:41:36;4.32;;;2.97;;
58820;SDS011;70670;52.476;13.334;2023-07-09T02:44:03;3.00;;;2.42;;
58820;SDS011;70670;52.476;13.334;2023-07-09T02:46:28;5.85;;;2.90;;
58820;SDS011;70670;52.476;13.334;2023-07-09T02:48:54;6.05;;;2.78;;
58820;SDS011;70670;52.476;13.334;2023-07-09T02:51:20;3.90;;;2.58;;
58820;SDS011;70670;52.476;13.334;2023-07-09T02:53:46;5.07;;;2.90;;
58820;SDS011;70670;52.476;13.334;2023-07-09T02:56:11;6.50;;;3.08;;
58820;SDS011;70670;52.476;13.334;2023-07-09T02:58:37;5.93;;;3.17;;
58820;SDS011;70670;52.476;13.334;2023-07-09T03:01:02;6.70;;;2.80;;
58820;SDS011;70670;52.476;13.334;2023-07-09T03:03:29;5.18;;;2.70;;
58820;SDS011;70670;52.476;13.334;2023-07-09T03:05:55;6.18;;;3.45;;
58820;SDS011;70670;52.476;13.334;2023-07-09T03:08:21;3.83;;;2.88;;
58820;SDS011;70670;52.476;13.334;2023-07-09T03:10:46;5.25;;;3.05;;
58820;SDS011;70670;52.476;13.334;2023-07-09T03:13:12;5.88;;;3.08;;
58820;SDS011;70670;52.476;13.334;2023-07-09T03:15:37;3.92;;;2.80;;
58820;SDS011;70670;52.476;13.334;2023-07-09T03:18:03;6.15;;;3.10;;
58820;SDS011;70670;52.476;13.334;2023-07-09T03:20:28;5.88;;;3.58;;
58820;SDS011;70670;52.476;13.334;2023-07-09T03:22:54;6.07;;;3.22;;
58820;SDS011;70670;52.476;13.334;2023-07-09T03:25:20;4.03;;;2.97;;
58820;SDS011;70670;52.476;13.334;2023-07-09T03:27:49;5.03;;;2.90;;
58820;SDS011;70670;52.476;13.334;2023-07-09T03:30:14;5.47;;;3.33;;
58820;SDS011;70670;52.476;13.334;2023-07-09T03:32:40;5.90;;;2.80;;
58820;SDS011;70670;52.476;13.334;2023-07-09T03:35:05;4.32;;;3.05;;
58820;SDS011;70670;52.476;13.334;2023-07-09T03:37:32;4.07;;;3.05;;
58820;SDS011;70670;52.476;13.334;2023-07-09T03:39:57;6.15;;;2.90;;
58820;SDS011;70670;52.476;13.334;2023-07-09T03:42:23;5.32;;;3.10;;
58820;SDS011;70670;52.476;13.334;2023-07-09T03:44:48;8.75;;;3.25;;
58820;SDS011;70670;52.476;13.334;2023-07-09T03:47:14;4.60;;;2.65;;
58820;SDS011;70670;52.476;13.334;2023-07-09T03:49:39;5.10;;;3.05;;
58820;SDS011;70670;52.476;13.334;2023-07-09T03:52:07;4.35;;;2.75;;
58820;SDS011;70670;52.476;13.334;2023-07-09T03:54:33;6.80;;;2.92;;
58820;SDS011;70670;52.476;13.334;2023-07-09T03:56:58;6.40;;;3.10;;
58820;SDS011;70670;52.476;13.334;2023-07-09T03:59:24;3.65;;;2.85;;
58820;SDS011;70670;52.476;13.334;2023-07-09T04:01:50;4.72;;;2.83;;
58820;SDS011;70670;52.476;13.334;2023-07-09T04:04:15;4.18;;;2.92;;
58820;SDS011;70670;52.476;13.334;2023-07-09T04:06:45;4.55;;;3.30;;
58820;SDS011;70670;52.476;13.334;2023-07-09T04:09:14;3.42;;;2.75;;
58820;SDS011;70670;52.476;13.334;2023-07-09T04:11:40;3.47;;;2.67;;
58820;SDS011;70670;52.476;13.334;2023-07-09T04:14:05;4.40;;;3.00;;
58820;SDS011;70670;52.476;13.334;2023-07-09T04:16:32;4.32;;;2.95;;
58820;SDS011;70670;52.476;13.334;2023-07-09T04:18:58;5.88;;;2.92;;
58820;SDS011;70670;52.476;13.334;2023-07-09T04:21:23;4.32;;;3.53;;
58820;SDS011;70670;52.476;13.334;2023-07-09T04:23:49;2.90;;;2.53;;
58820;SDS011;70670;52.476;13.334;2023-07-09T04:26:14;5.00;;;3.28;;
58820;SDS011;70670;52.476;13.334;2023-07-09T04:28:40;5.63;;;2.70;;
58820;SDS011;70670;52.476;13.334;2023-07-09T04:31:06;4.30;;;2.83;;
58820;SDS011;70670;52.476;13.334;2023-07-09T04:33:31;8.10;;;3.53;;
58820;SDS011;70670;52.476;13.334;2023-07-09T04:35:57;3.30;;;2.90;;
58820;SDS011;70670;52.476;13.334;2023-07-09T04:38:23;4.68;;;2.90;;
58820;SDS011;70670;52.476;13.334;2023-07-09T04:40:48;4.90;;;3.00;;
58820;SDS011;70670;52.476;13.334;2023-07-09T04:43:14;7.32;;;3.45;;
58820;SDS011;70670;52.476;13.334;2023-07-09T04:45:40;4.82;;;3.40;;
58820;SDS011;70670;52.476;13.334;2023-07-09T04:48:05;3.20;;;2.80;;
58820;SDS011;70670;52.476;13.334;2023-07-09T04:50:31;3.45;;;2.70;;
58820;SDS011;70670;52.476;13.334;2023-07-09T04:52:58;6.53;;;2.70;;
58820;SDS011;70670;52.476;13.334;2023-07-09T04:55:24;5.15;;;2.90;;
58820;SDS011;70670;52.476;13.334;2023-07-09T04:57:50;5.53;;;2.88;;
58820;SDS011;70670;52.476;13.334;2023-07-09T05:00:15;3.50;;;2.95;;
58820;SDS011;70670;52.476;13.334;2023-07-09T05:02:41;4.55;;;2.88;;
58820;SDS011;70670;52.476;13.334;2023-07-09T05:05:07;6.72;;;3.08;;
58820;SDS011;70670;52.476;13.334;2023-07-09T05:07:32;6.35;;;2.83;;
58820;SDS011;70670;52.476;13.334;2023-07-09T05:09:58;3.40;;;2.72;;
58820;SDS011;70670;52.476;13.334;2023-07-09T05:12:26;5.65;;;2.70;;
58820;SDS011;70670;52.476;13.334;2023-07-09T05:14:52;3.50;;;2.70;;
58820;SDS011;70670;52.476;13.334;2023-07-09T05:17:17;2.58;;;2.33;;
58820;SDS011;70670;52.476;13.334;2023-07-09T05:19:43;7.15;;;3.00;;
58820;SDS011;70670;52.476;13.334;2023-07-09T05:22:09;7.30;;;2.83;;
58820;SDS011;70670;52.476;13.334;2023-07-09T05:24:34;4.80;;;3.25;;
58820;SDS011;70670;52.476;13.334;2023-07-09T05:27:00;3.13;;;2.83;;
58820;SDS011;70670;52.476;13.334;2023-07-09T05:29:25;4.93;;;2.70;;
58820;SDS011;70670;52.476;13.334;2023-07-09T05:31:52;3.53;;;2.80;;
58820;SDS011;70670;52.476;13.334;2023-07-09T05:34:17;4.10;;;3.03;;
58820;SDS011;70670;52.476;13.334;2023-07-09T05:36:43;4.07;;;2.90;;
58820;SDS011;70670;52.476;13.334;2023-07-09T05:39:10;4.82;;;3.25;;
58820;SDS011;70670;52.476;13.334;2023-07-09T05:41:35;4.53;;;2.95;;
58820;SDS011;70670;52.476;13.334;2023-07-09T05:44:01;4.53;;;2.67;;
58820;SDS011;70670;52.476;13.334;2023-07-09T05:46:27;10.23;;;3.10;;
58820;SDS011;70670;52.476;13.334;2023-07-09T05:48:52;6.30;;;2.97;;
58820;SDS011;70670;52.476;13.334;2023-07-09T05:51:18;3.45;;;2.90;;
58820;SDS011;70670;52.476;13.334;2023-07-09T05:53:44;3.92;;;2.92;;
58820;SDS011;70670;52.476;13.334;2023-07-09T05:56:09;4.53;;;3.00;;
58820;SDS011;70670;52.476;13.334;2023-07-09T05:58:36;8.18;;;2.80;;
58820;SDS011;70670;52.476;13.334;2023-07-09T06:01:01;8.13;;;3.10;;
58820;SDS011;70670;52.476;13.334;2023-07-09T06:03:28;5.28;;;2.65;;
58820;SDS011;70670;52.476;13.334;2023-07-09T06:05:55;4.50;;;2.90;;
58820;SDS011;70670;52.476;13.334;2023-07-09T06:08:22;5.25;;;3.20;;
58820;SDS011;70670;52.476;13.334;2023-07-09T06:10:55;4.05;;;3.00;;
58820;SDS011;70670;52.476;13.334;2023-07-09T06:13:25;5.43;;;2.90;;
58820;SDS011;70670;52.476;13.334;2023-07-09T06:15:53;4.90;;;3.03;;
58820;SDS011;70670;52.476;13.334;2023-07-09T06:18:20;4.65;;;2.92;;
58820;SDS011;70670;52.476;13.334;2023-07-09T06:20:50;5.10;;;3.10;;
58820;SDS011;70670;52.476;13.334;2023-07-09T06:23:18;5.50;;;2.95;;
58820;SDS011;70670;52.476;13.334;2023-07-09T06:25:45;4.15;;;2.70;;
58820;SDS011;70670;52.476;13.334;2023-07-09T06:28:17;5.65;;;2.72;;
58820;SDS011;70670;52.476;13.334;2023-07-09T06:30:45;6.45;;;3.08;;
58820;SDS011;70670;52.476;13.334;2023-07-09T06:33:13;5.07;;;2.97;;
58820;SDS011;70670;52.476;13.334;2023-07-09T06:35:39;6.43;;;2.97;;
58820;SDS011;70670;52.476;13.334;2023-07-09T06:38:11;5.70;;;2.70;;
58820;SDS011;70670;52.476;13.334;2023-07-09T06:40:37;5.25;;;3.67;;
58820;SDS011;70670;52.476;13.334;2023-07-09T06:43:02;4.50;;;2.85;;
58820;SDS011;70670;52.476;13.334;2023-07-09T06:45:28;4.57;;;2.90;;
58820;SDS011;70670;52.476;13.334;2023-07-09T06:47:54;6.32;;;2.83;;
58820;SDS011;70670;52.476;13.334;2023-07-09T06:50:19;2.95;;;2.65;;
58820;SDS011;70670;52.476;13.334;2023-07-09T06:52:46;3.85;;;3.00;;
58820;SDS011;70670;52.476;13.334;2023-07-09T06:55:11;3.63;;;3.00;;
58820;SDS011;70670;52.476;13.334;2023-07-09T06:57:37;6.45;;;3.20;;
58820;SDS011;70670;52.476;13.334;2023-07-09T07:00:03;4.82;;;3.10;;
58820;SDS011;70670;52.476;13.334;2023-07-09T07:02:29;4.82;;;3.40;;
58820;SDS011;70670;52.476;13.334;2023-07-09T07:04:54;4.68;;;3.33;;
58820;SDS011;70670;52.476;13.334;2023-07-09T07:07:21;5.22;;;3.17;;
58820;SDS011;70670;52.476;13.334;2023-07-09T07:09:47;4.15;;;3.25;;
58820;SDS011;70670;52.476;13.334;2023-07-09T07:12:20;6.10;;;3.10;;
58820;SDS011;70670;52.476;13.334;2023-07-09T07:14:49;7.03;;;2.90;;
58820;SDS011;70670;52.476;13.334;2023-07-09T07:17:15;4.15;;;2.75;;
58820;SDS011;70670;52.476;13.334;2023-07-09T07:19:40;4.78;;;3.00;;
58820;SDS011;70670;52.476;13.334;2023-07-09T07:22:06;5.57;;;3.00;;
58820;SDS011;70670;52.476;13.334;2023-07-09T07:24:32;7.30;;;3.08;;
58820;SDS011;70670;52.476;13.334;2023-07-09T07:26:58;6.95;;;2.90;;
58820;SDS011;70670;52.476;13.334;2023-07-09T07:29:23;6.25;;;3.30;;
58820;SDS011;70670;52.476;13.334;2023-07-09T07:31:49;5.68;;;3.22;;
58820;SDS011;70670;52.476;13.334;2023-07-09T07:34:15;3.53;;;2.97;;
58820;SDS011;70670;52.476;13.334;2023-07-09T07:36:40;6.05;;;2.95;;
58820;SDS011;70670;52.476;13.334;2023-07-09T07:39:06;4.05;;;2.88;;
58820;SDS011;70670;52.476;13.334;2023-07-09T07:41:32;5.07;;;3.00;;
58820;SDS011;70670;52.476;13.334;2023-07-09T07:43:57;4.40;;;2.83;;
58820;SDS011;70670;52.476;13.334;2023-07-09T07:46:23;5.85;;;3.10;;
58820;SDS011;70670;52.476;13.334;2023-07-09T07:48:48;5.30;;;2.80;;
58820;SDS011;70670;52.476;13.334;2023-07-09T07:51:15;5.45;;;3.25;;
58820;SDS011;70670;52.476;13.334;2023-07-09T07:53:40;4.38;;;2.83;;
58820;SDS011;70670;52.476;13.334;2023-07-09T07:56:06;5.25;;;3.00;;
58820;SDS011;70670;52.476;13.334;2023-07-09T07:58:32;3.40;;;2.92;;
58820;SDS011;70670;52.476;13.334;2023-07-09T08:00:58;4.05;;;3.20;;
58820;SDS011;70670;52.476;13.334;2023-07-09T08:03:24;5.57;;;3.15;;
58820;SDS011;70670;52.476;13.334;2023-07-09T08:05:50;5.53;;;3.35;;
58820;SDS011;70670;52.476;13.334;2023-07-09T08:08:16;4.13;;;3.10;;
58820;SDS011;70670;52.476;13.334;2023-07-09T08:10:42;6.72;;;3.53;;
58820;SDS011;70670;52.476;13.334;2023-07-09T08:13:07;9.40;;;3.08;;
58820;SDS011;70670;52.476;13.334;2023-07-09T08:15:33;4.60;;;2.75;;
58820;SDS011;70670;52.476;13.334;2023-07-09T08:17:59;5.30;;;3.08;;
58820;SDS011;70670;52.476;13.334;2023-07-09T08:20:25;4.07;;;3.05;;
58820;SDS011;70670;52.476;13.334;2023-07-09T08:22:50;5.18;;;3.33;;
58820;SDS011;70670;52.476;13.334;2023-07-09T08:25:16;5.60;;;3.20;;
58820;SDS011;70670;52.476;13.334;2023-07-09T08:27:42;6.25;;;3.47;;
58820;SDS011;70670;52.476;13.334;2023-07-09T08:30:08;6.00;;;3.47;;
58820;SDS011;70670;52.476;13.334;2023-07-09T08:32:34;5.70;;;3.47;;
58820;SDS011;70670;52.476;13.334;2023-07-09T08:34:59;3.28;;;3.00;;
58820;SDS011;70670;52.476;13.334;2023-07-09T08:37:25;3.40;;;3.10;;
58820;SDS011;70670;52.476;13.334;2023-07-09T08:39:51;5.47;;;3.30;;
58820;SDS011;70670;52.476;13.334;2023-07-09T08:42:19;5.80;;;3.20;;
58820;SDS011;70670;52.476;13.334;2023-07-09T08:47:40;3.78;;;2.90;;
58820;SDS011;70670;52.476;13.334;2023-07-09T08:50:21;2.95;;;2.67;;
58820;SDS011;70670;52.476;13.334;2023-07-09T08:52:50;5.38;;;2.78;;
58820;SDS011;70670;52.476;13.334;2023-07-09T08:57:48;4.05;;;2.75;;
58820;SDS011;70670;52.476;13.334;2023-07-09T09:00:27;4.60;;;3.20;;
58820;SDS011;70670;52.476;13.334;2023-07-09T09:03:05;3.20;;;2.90;;
58820;SDS011;70670;52.476;13.334;2023-07-09T09:05:38;4.28;;;2.45;;
58820;SDS011;70670;52.476;13.334;2023-07-09T09:08:13;6.13;;;3.10;;
58820;SDS011;70670;52.476;13.334;2023-07-09T09:11:17;3.72;;;2.85;;
58820;SDS011;70670;52.476;13.334;2023-07-09T09:13:46;4.30;;;2.97;;
58820;SDS011;70670;52.476;13.334;2023-07-09T09:16:24;4.68;;;2.78;;
58820;SDS011;70670;52.476;13.334;2023-07-09T09:18:54;5.18;;;2.83;;
58820;SDS011;70670;52.476;13.334;2023-07-09T09:21:23;4.43;;;2.80;;
58820;SDS011;70670;52.476;13.334;2023-07-09T09:23:52;7.47;;;2.47;;
58820;SDS011;70670;52.476;13.334;2023-07-09T09:26:31;3.08;;;2.50;;
58820;SDS011;70670;52.476;13.334;2023-07-09T09:28:59;2.95;;;2.63;;
58820;SDS011;70670;52.476;13.334;2023-07-09T09:31:28;5.03;;;2.78;;
58820;SDS011;70670;52.476;13.334;2023-07-09T09:33:55;4.72;;;2.75;;
58820;SDS011;70670;52.476;13.334;2023-07-09T09:36:25;2.42;;;2.10;;
58820;SDS011;70670;52.476;13.334;2023-07-09T09:38:52;3.47;;;2.83;;
58820;SDS011;70670;52.476;13.334;2023-07-09T09:41:19;5.35;;;2.47;;
58820;SDS011;70670;52.476;13.334;2023-07-09T09:43:47;2.60;;;2.40;;
58820;SDS011;70670;52.476;13.334;2023-07-09T09:46:16;2.97;;;2.67;;
58820;SDS011;70670;52.476;13.334;2023-07-09T09:48:47;3.15;;;2.72;;
58820;SDS011;70670;52.476;13.334;2023-07-09T09:51:15;4.13;;;2.55;;
58820;SDS011;70670;52.476;13.334;2023-07-09T09:53:44;3.88;;;2.47;;
58820;SDS011;70670;52.476;13.334;2023-07-09T09:56:15;4.88;;;2.65;;
58820;SDS011;70670;52.476;13.334;2023-07-09T09:58:52;3.45;;;2.38;;
58820;SDS011;70670;52.476;13.334;2023-07-09T10:01:19;6.95;;;3.03;;
58820;SDS011;70670;52.476;13.334;2023-07-09T10:03:55;4.45;;;2.58;;
58820;SDS011;70670;52.476;13.334;2023-07-09T10:06:33;3.60;;;3.30;;
58820;SDS011;70670;52.476;13.334;2023-07-09T10:09:05;5.95;;;2.53;;
58820;SDS011;70670;52.476;13.334;2023-07-09T10:12:03;3.05;;;2.70;;
58820;SDS011;70670;52.476;13.334;2023-07-09T10:14:38;4.45;;;2.95;;
58820;SDS011;70670;52.476;13.334;2023-07-09T10:17:46;2.83;;;2.50;;
58820;SDS011;70670;52.476;13.334;2023-07-09T10:20:34;5.25;;;3.00;;
58820;SDS011;70670;52.476;13.334;2023-07-09T10:23:15;4.28;;;3.05;;
58820;SDS011;70670;52.476;13.334;2023-07-09T10:26:06;5.18;;;2.97;;
58820;SDS011;70670;52.476;13.334;2023-07-09T10:28:43;2.63;;;2.40;;
58820;SDS011;70670;52.476;13.334;2023-07-09T10:31:27;3.53;;;2.75;;
58820;SDS011;70670;52.476;13.334;2023-07-09T10:34:29;6.45;;;2.60;;
58820;SDS011;70670;52.476;13.334;2023-07-09T10:37:21;3.03;;;2.75;;
58820;SDS011;70670;52.476;13.334;2023-07-09T10:40:00;3.00;;;2.72;;
58820;SDS011;70670;52.476;13.334;2023-07-09T10:42:35;5.57;;;2.40;;
58820;SDS011;70670;52.476;13.334;2023-07-09T10:45:10;3.65;;;2.88;;
58820;SDS011;70670;52.476;13.334;2023-07-09T10:47:43;3.65;;;3.15;;
58820;SDS011;70670;52.476;13.334;2023-07-09T10:50:12;3.20;;;2.75;;
58820;SDS011;70670;52.476;13.334;2023-07-09T10:52:43;6.70;;;3.50;;
58820;SDS011;70670;52.476;13.334;2023-07-09T10:55:16;3.55;;;2.72;;
58820;SDS011;70670;52.476;13.334;2023-07-09T10:57:54;6.57;;;2.92;;
58820;SDS011;70670;52.476;13.334;2023-07-09T11:00:32;3.95;;;2.85;;
58820;SDS011;70670;52.476;13.334;2023-07-09T11:03:03;6.15;;;2.78;;
58820;SDS011;70670;52.476;13.334;2023-07-09T11:05:35;3.90;;;2.85;;
58820;SDS011;70670;52.476;13.334;2023-07-09T11:08:15;2.90;;;2.45;;
58820;SDS011;70670;52.476;13.334;2023-07-09T11:11:03;5.40;;;3.10;;
58820;SDS011;70670;52.476;13.334;2023-07-09T11:13:36;7.55;;;3.10;;
58820;SDS011;70670;52.476;13.334;2023-07-09T11:16:06;5.85;;;3.40;;
58820;SDS011;70670;52.476;13.334;2023-07-09T11:18:34;5.95;;;3.15;;
58820;SDS011;70670;52.476;13.334;2023-07-09T11:21:04;5.60;;;3.00;;
58820;SDS011;70670;52.476;13.334;2023-07-09T11:23:48;6.25;;;2.90;;
58820;SDS011;70670;52.476;13.334;2023-07-09T11:31:33;4.60;;;3.05;;
58820;SDS011;70670;52.476;13.334;2023-07-09T11:34:21;3.50;;;3.20;;
58820;SDS011;70670;52.476;13.334;2023-07-09T11:41:54;3.40;;;3.10;;
58820;SDS011;70670;52.476;13.334;2023-07-09T11:44:22;3.63;;;2.85;;
58820;SDS011;70670;52.476;13.334;2023-07-09T11:49:15;3.55;;;2.72;;
58820;SDS011;70670;52.476;13.334;2023-07-09T11:54:12;4.60;;;3.10;;
58820;SDS011;70670;52.476;13.334;2023-07-09T11:56:41;5.35;;;3.40;;
58820;SDS011;70670;52.476;13.334;2023-07-09T11:59:07;5.55;;;3.08;;
58820;SDS011;70670;52.476;13.334;2023-07-09T12:01:45;3.40;;;2.90;;
58820;SDS011;70670;52.476;13.334;2023-07-09T12:04:14;3.83;;;2.97;;
58820;SDS011;70670;52.476;13.334;2023-07-09T12:09:09;4.53;;;3.30;;
58820;SDS011;70670;52.476;13.334;2023-07-09T12:11:43;5.57;;;3.35;;
58820;SDS011;70670;52.476;13.334;2023-07-09T12:14:11;4.22;;;3.10;;
58820;SDS011;70670;52.476;13.334;2023-07-09T12:16:39;8.02;;;3.22;;
58820;SDS011;70670;52.476;13.334;2023-07-09T12:19:08;5.93;;;3.60;;
58820;SDS011;70670;52.476;13.334;2023-07-09T12:21:38;3.78;;;3.47;;
58820;SDS011;70670;52.476;13.334;2023-07-09T12:24:18;3.00;;;2.80;;
58820;SDS011;70670;52.476;13.334;2023-07-09T12:26:53;4.00;;;3.50;;
58820;SDS011;70670;52.476;13.334;2023-07-09T12:29:19;4.20;;;3.80;;
58820;SDS011;70670;52.476;13.334;2023-07-09T12:31:48;5.32;;;3.80;;
58820;SDS011;70670;52.476;13.334;2023-07-09T12:34:14;4.55;;;3.70;;
58820;SDS011;70670;52.476;13.334;2023-07-09T12:36:46;4.45;;;3.72;;
58820;SDS011;70670;52.476;13.334;2023-07-09T12:39:14;6.70;;;5.03;;
58820;SDS011;70670;52.476;13.334;2023-07-09T12:41:49;7.07;;;4.60;;
58820;SDS011;70670;52.476;13.334;2023-07-09T12:44:16;7.38;;;4.75;;
58820;SDS011;70670;52.476;13.334;2023-07-09T12:46:44;9.23;;;4.57;;
58820;SDS011;70670;52.476;13.334;2023-07-09T12:49:29;5.57;;;4.68;;
58820;SDS011;70670;52.476;13.334;2023-07-09T12:52:02;5.43;;;3.95;;
58820;SDS011;70670;52.476;13.334;2023-07-09T12:54:34;5.88;;;3.78;;
58820;SDS011;70670;52.476;13.334;2023-07-09T12:57:00;6.65;;;3.83;;
58820;SDS011;70670;52.476;13.334;2023-07-09T12:59:38;3.60;;;3.30;;
58820;SDS011;70670;52.476;13.334;2023-07-09T13:02:17;5.95;;;3.60;;
58820;SDS011;70670;52.476;13.334;2023-07-09T13:04:45;6.38;;;3.35;;
58820;SDS011;70670;52.476;13.334;2023-07-09T13:09:50;4.10;;;3.70;;
58820;SDS011;70670;52.476;13.334;2023-07-09T13:12:16;5.78;;;3.70;;
58820;SDS011;70670;52.476;13.334;2023-07-09T13:14:42;4.35;;;3.95;;
58820;SDS011;70670;52.476;13.334;2023-07-09T13:17:12;7.50;;;4.03;;
58820;SDS011;70670;52.476;13.334;2023-07-09T13:19:41;4.75;;;4.25;;
58820;SDS011;70670;52.476;13.334;2023-07-09T13:22:07;13.60;;;3.78;;
58820;SDS011;70670;52.476;13.334;2023-07-09T13:24:36;4.25;;;3.63;;
58820;SDS011;70670;52.476;13.334;2023-07-09T13:27:02;4.72;;;3.97;;
58820;SDS011;70670;52.476;13.334;2023-07-09T13:29:28;5.10;;;3.65;;
58820;SDS011;70670;52.476;13.334;2023-07-09T13:31:53;4.72;;;3.85;;
58820;SDS011;70670;52.476;13.334;2023-07-09T13:34:21;5.75;;;3.80;;
58820;SDS011;70670;52.476;13.334;2023-07-09T13:36:49;4.00;;;3.60;;
58820;SDS011;70670;52.476;13.334;2023-07-09T13:39:15;5.63;;;3.80;;
58820;SDS011;70670;52.476;13.334;2023-07-09T13:41:44;6.07;;;3.47;;
58820;SDS011;70670;52.476;13.334;2023-07-09T13:44:15;5.40;;;3.60;;
58820;SDS011;70670;52.476;13.334;2023-07-09T13:46:45;7.28;;;3.90;;
58820;SDS011;70670;52.476;13.334;2023-07-09T13:49:12;4.18;;;3.70;;
58820;SDS011;70670;52.476;13.334;2023-07-09T13:51:40;6.03;;;3.97;;
58820;SDS011;70670;52.476;13.334;2023-07-09T13:54:17;4.65;;;3.67;;
58820;SDS011;70670;52.476;13.334;2023-07-09T13:56:45;4.85;;;4.10;;
58820;SDS011;70670;52.476;13.334;2023-07-09T13:59:15;5.13;;;3.80;;
58820;SDS011;70670;52.476;13.334;2023-07-09T14:01:43;4.78;;;4.28;;
58820;SDS011;70670;52.476;13.334;2023-07-09T14:04:10;4.53;;;3.90;;
58820;SDS011;70670;52.476;13.334;2023-07-09T14:06:37;4.53;;;3.90;;
58820;SDS011;70670;52.476;13.334;2023-07-09T14:09:02;7.55;;;3.67;;
58820;SDS011;70670;52.476;13.334;2023-07-09T14:11:28;3.72;;;3.17;;
58820;SDS011;70670;52.476;13.334;2023-07-09T14:13:54;3.50;;;3.20;;
58820;SDS011;70670;52.476;13.334;2023-07-09T14:16:21;4.60;;;4.13;;
58820;SDS011;70670;52.476;13.334;2023-07-09T14:18:46;4.60;;;4.20;;
58820;SDS011;70670;52.476;13.334;2023-07-09T14:21:13;4.57;;;3.55;;
58820;SDS011;70670;52.476;13.334;2023-07-09T14:23:40;5.97;;;3.65;;
58820;SDS011;70670;52.476;13.334;2023-07-09T14:26:08;6.65;;;4.00;;
58820;SDS011;70670;52.476;13.334;2023-07-09T14:28:34;4.82;;;3.40;;
58820;SDS011;70670;52.476;13.334;2023-07-09T14:31:04;7.03;;;4.00;;
58820;SDS011;70670;52.476;13.334;2023-07-09T14:33:37;6.80;;;3.75;;
58820;SDS011;70670;52.476;13.334;2023-07-09T14:36:03;4.20;;;3.50;;
58820;SDS011;70670;52.476;13.334;2023-07-09T14:38:28;4.43;;;3.97;;
58820;SDS011;70670;52.476;13.334;2023-07-09T14:40:55;7.00;;;4.05;;
58820;SDS011;70670;52.476;13.334;2023-07-09T14:43:23;3.88;;;3.53;;
58820;SDS011;70670;52.476;13.334;2023-07-09T14:45:49;5.28;;;3.33;;
58820;SDS011;70670;52.476;13.334;2023-07-09T14:48:20;5.88;;;3.40;;
58820;SDS011;70670;52.476;13.334;2023-07-09T14:50:46;3.75;;;3.45;;
58820;SDS011;70670;52.476;13.334;2023-07-09T14:53:14;4.65;;;3.80;;
58820;SDS011;70670;52.476;13.334;2023-07-09T14:55:41;8.05;;;4.90;;
58820;SDS011;70670;52.476;13.334;2023-07-09T14:58:11;7.78;;;4.90;;
58820;SDS011;70670;52.476;13.334;2023-07-09T15:00:40;3.58;;;3.25;;
58820;SDS011;70670;52.476;13.334;2023-07-09T15:03:07;4.50;;;3.67;;
58820;SDS011;70670;52.476;13.334;2023-07-09T15:05:35;5.40;;;4.03;;
58820;SDS011;70670;52.476;13.334;2023-07-09T15:08:01;5.97;;;4.15;;
58820;SDS011;70670;52.476;13.334;2023-07-09T15:10:37;8.32;;;4.22;;
58820;SDS011;70670;52.476;13.334;2023-07-09T15:13:02;6.63;;;3.42;;
58820;SDS011;70670;52.476;13.334;2023-07-09T15:15:30;3.97;;;3.55;;
58820;SDS011;70670;52.476;13.334;2023-07-09T15:17:56;5.47;;;3.50;;
58820;SDS011;70670;52.476;13.334;2023-07-09T15:20:26;4.32;;;3.30;;